createdAt,value
2019-02-28T00:00:40.667Z,18.71
2019-02-28T00:03:15.634Z,18.69
2019-02-28T00:05:50.969Z,18.68
2019-02-28T00:08:24.938Z,18.66
2019-02-28T00:11:02.030Z,18.66
2019-02-28T00:13:36.630Z,18.66
2019-02-28T00:16:10.939Z,18.64
2019-02-28T00:18:49.497Z,18.66
2019-02-28T00:21:20.905Z,18.63
2019-02-28T00:23:57.295Z,18.62
2019-02-28T00:26:31.292Z,18.59
2019-02-28T00:29:05.589Z,18.60
2019-02-28T00:31:39.783Z,18.56
2019-02-28T00:34:14.030Z,18.58
2019-02-28T00:36:50.298Z,18.57
2019-02-28T00:39:23.920Z,18.54
2019-02-28T00:41:58.127Z,18.55
2019-02-28T00:44:32.376Z,18.55
2019-02-28T00:47:06.324Z,18.54
2019-02-28T00:49:40.347Z,18.54
2019-02-28T00:52:14.627Z,18.53
2019-02-28T00:54:49.459Z,18.52
2019-02-28T00:57:23.800Z,18.50
2019-02-28T00:59:58.831Z,18.51
2019-02-28T01:02:33.137Z,18.50
2019-02-28T01:05:07.704Z,18.52
2019-02-28T01:07:42.141Z,18.47
2019-02-28T01:10:17.756Z,18.45
2019-02-28T01:12:54.299Z,18.46
2019-02-28T01:15:27.624Z,18.46
2019-02-28T01:18:01.887Z,18.46
2019-02-28T01:20:36.114Z,18.46
2019-02-28T01:23:10.201Z,18.46
2019-02-28T01:25:44.700Z,18.41
2019-02-28T01:28:18.725Z,18.42
2019-02-28T01:30:52.688Z,18.39
2019-02-28T01:33:27.093Z,18.38
2019-02-28T01:36:01.446Z,18.33
2019-02-28T01:38:36.145Z,18.33
2019-02-28T01:41:11.173Z,18.34
2019-02-28T01:43:45.363Z,18.31
2019-02-28T01:46:20.212Z,18.34
2019-02-28T01:48:55.213Z,18.31
2019-02-28T01:51:35.631Z,18.30
2019-02-28T01:54:06.127Z,18.29
2019-02-28T01:56:40.516Z,18.28
2019-02-28T01:59:14.850Z,18.29
2019-02-28T02:01:49.041Z,18.26
2019-02-28T02:04:23.656Z,18.28
2019-02-28T02:06:59.840Z,18.31
2019-02-28T02:09:34.741Z,18.31
2019-02-28T02:12:09.009Z,18.32
2019-02-28T02:14:45.613Z,18.33
2019-02-28T02:17:19.597Z,18.35
2019-02-28T02:19:54.026Z,18.36
2019-02-28T02:22:29.354Z,18.36
2019-02-28T02:25:04.244Z,18.37
2019-02-28T02:27:38.539Z,18.38
2019-02-28T02:30:18.858Z,18.39
2019-02-28T02:32:53.192Z,18.39
2019-02-28T02:35:31.001Z,18.43
2019-02-28T02:38:06.240Z,18.40
2019-02-28T02:40:42.484Z,18.48
2019-02-28T02:43:16.789Z,18.44
2019-02-28T02:45:50.902Z,18.43
2019-02-28T02:48:27.157Z,18.40
2019-02-28T02:51:01.546Z,18.42
2019-02-28T02:53:41.359Z,18.41
2019-02-28T02:56:14.116Z,18.42
2019-02-28T02:58:48.566Z,18.42
2019-02-28T03:01:24.534Z,18.44
2019-02-28T03:03:58.894Z,18.47
2019-02-28T03:06:33.095Z,18.46
2019-02-28T03:09:11.077Z,18.46
2019-02-28T03:11:45.669Z,18.47
2019-02-28T03:14:19.799Z,18.44
2019-02-28T03:16:54.012Z,18.46
2019-02-28T03:19:33.227Z,18.49
2019-02-28T03:22:03.877Z,18.48
2019-02-28T03:24:40.168Z,18.46
2019-02-28T03:27:18.723Z,18.43
2019-02-28T03:29:50.346Z,18.45
2019-02-28T03:32:24.474Z,18.43
2019-02-28T03:34:59.417Z,18.48
2019-02-28T03:37:34.620Z,18.46
2019-02-28T03:40:09.534Z,18.41
2019-02-28T03:42:45.179Z,18.41
2019-02-28T03:45:19.619Z,18.41
2019-02-28T03:47:58.438Z,18.43
2019-02-28T03:50:32.455Z,18.41
2019-02-28T03:53:07.605Z,18.43
2019-02-28T03:55:41.974Z,18.41
2019-02-28T03:58:16.207Z,18.41
2019-02-28T04:00:50.498Z,18.41
2019-02-28T04:03:24.783Z,18.39
2019-02-28T04:06:03.899Z,18.43
2019-02-28T04:08:38.206Z,18.42
2019-02-28T04:11:12.403Z,18.43
2019-02-28T04:13:46.448Z,18.44
2019-02-28T04:16:20.611Z,18.41
2019-02-28T04:18:54.858Z,18.37
2019-02-28T04:21:29.053Z,18.36
2019-02-28T04:24:03.310Z,18.34
2019-02-28T04:26:37.482Z,18.35
2019-02-28T04:29:14.499Z,18.46
2019-02-28T04:31:51.295Z,18.41
2019-02-28T04:34:25.726Z,18.34
2019-02-28T04:37:00.035Z,18.32
2019-02-28T04:39:35.263Z,18.33
2019-02-28T04:42:09.926Z,18.29
2019-02-28T04:44:44.173Z,18.30
2019-02-28T04:47:18.414Z,18.29
2019-02-28T04:49:53.531Z,18.29
2019-02-28T04:52:27.611Z,18.28
2019-02-28T04:55:02.898Z,18.26
2019-02-28T04:57:38.528Z,18.24
2019-02-28T05:00:13.086Z,18.25
2019-02-28T05:02:47.249Z,18.28
2019-02-28T05:05:21.299Z,18.26
2019-02-28T05:07:55.662Z,18.25
2019-02-28T05:10:29.927Z,18.27
2019-02-28T05:13:06.263Z,18.28
2019-02-28T05:15:41.168Z,18.26
2019-02-28T05:18:15.730Z,18.26
2019-02-28T05:20:50.089Z,18.29
2019-02-28T05:23:24.384Z,18.27
2019-02-28T05:25:59.527Z,18.25
2019-02-28T05:28:33.740Z,18.26
2019-02-28T05:31:08.165Z,18.31
2019-02-28T05:33:42.933Z,18.33
2019-02-28T05:36:17.572Z,18.29
2019-02-28T05:38:53.613Z,18.52
2019-02-28T05:41:28.304Z,18.58
2019-02-28T05:44:03.292Z,18.49
2019-02-28T05:46:38.726Z,18.43
2019-02-28T05:49:13.067Z,18.37
2019-02-28T05:51:48.200Z,18.31
2019-02-28T05:54:22.518Z,18.31
2019-02-28T05:56:57.086Z,18.35
2019-02-28T05:59:31.245Z,18.34
2019-02-28T06:02:05.466Z,18.34
2019-02-28T06:04:40.474Z,18.32
2019-02-28T06:07:15.250Z,18.31
2019-02-28T06:09:49.425Z,18.31
2019-02-28T06:12:24.075Z,18.32
2019-02-28T06:15:03.182Z,18.31
2019-02-28T06:17:34.863Z,18.32
2019-02-28T06:20:09.917Z,18.30
2019-02-28T06:22:44.480Z,18.31
2019-02-28T06:25:23.878Z,18.29
2019-02-28T06:27:55.117Z,18.29
2019-02-28T06:30:29.017Z,18.28
2019-02-28T06:33:04.284Z,18.27
2019-02-28T06:35:39.386Z,18.30
2019-02-28T06:38:16.205Z,18.30
2019-02-28T06:40:49.769Z,18.30
2019-02-28T06:43:24.345Z,18.30
2019-02-28T06:45:58.542Z,18.29
2019-02-28T06:48:32.778Z,18.29
2019-02-28T06:51:06.884Z,18.30
2019-02-28T06:53:42.252Z,18.29
2019-02-28T06:56:19.412Z,18.29
2019-02-28T06:58:52.668Z,18.32
2019-02-28T07:01:29.588Z,18.32
2019-02-28T07:04:04.101Z,18.32
2019-02-28T07:06:39.804Z,18.32
2019-02-28T07:09:14.143Z,18.27
2019-02-28T07:11:51.348Z,18.30
2019-02-28T07:14:28.433Z,18.33
2019-02-28T07:17:07.746Z,18.34
2019-02-28T07:19:41.375Z,18.35
2019-02-28T07:22:19.626Z,18.32
2019-02-28T07:24:51.986Z,18.33
2019-02-28T07:27:29.740Z,18.31
2019-02-28T07:30:03.729Z,18.29
2019-02-28T07:32:39.862Z,18.31
2019-02-28T07:35:14.356Z,18.31
2019-02-28T07:37:53.382Z,18.30
2019-02-28T07:40:24.613Z,18.32
2019-02-28T07:42:58.667Z,18.31
2019-02-28T07:45:34.189Z,18.31
2019-02-28T07:48:08.555Z,18.31
2019-02-28T07:50:46.695Z,18.33
2019-02-28T07:53:22.007Z,18.33
2019-02-28T07:55:57.674Z,18.32
2019-02-28T07:58:34.003Z,18.34
2019-02-28T08:01:08.896Z,18.35
2019-02-28T08:03:44.928Z,18.33
2019-02-28T08:06:19.502Z,18.34
2019-02-28T08:08:54.308Z,18.34
2019-02-28T08:11:28.824Z,18.35
2019-02-28T08:14:02.915Z,18.36
2019-02-28T08:16:37.259Z,18.37
2019-02-28T08:19:11.468Z,18.37
2019-02-28T08:21:50.179Z,18.37
2019-02-28T08:24:21.437Z,18.37
2019-02-28T08:26:55.525Z,18.41
2019-02-28T08:29:29.727Z,18.44
2019-02-28T08:32:08.044Z,18.43
2019-02-28T08:34:40.303Z,18.42
2019-02-28T08:37:14.889Z,18.39
2019-02-28T08:39:48.831Z,18.40
2019-02-28T08:42:23.125Z,18.41
2019-02-28T08:44:59.144Z,18.41
2019-02-28T08:47:33.450Z,18.43
2019-02-28T08:50:08.352Z,18.44
2019-02-28T08:52:42.613Z,18.46
2019-02-28T08:55:17.381Z,18.47
2019-02-28T08:57:54.721Z,18.47
2019-02-28T09:00:32.642Z,18.46
2019-02-28T09:03:04.026Z,18.47
2019-02-28T09:05:38.111Z,18.47
2019-02-28T09:08:12.302Z,18.48
2019-02-28T09:10:47.908Z,18.49
2019-02-28T09:13:22.648Z,18.47
2019-02-28T09:15:57.049Z,18.47
2019-02-28T09:18:31.433Z,18.50
2019-02-28T09:21:05.721Z,18.50
2019-02-28T09:23:40.240Z,18.51
2019-02-28T09:26:14.639Z,18.54
2019-02-28T09:28:49.942Z,18.53
2019-02-28T09:31:25.825Z,18.53
2019-02-28T09:34:00.236Z,18.55
2019-02-28T09:36:34.692Z,18.56
2019-02-28T09:39:10.525Z,18.54
2019-02-28T09:41:44.731Z,18.57
2019-02-28T09:44:18.978Z,18.57
2019-02-28T09:46:53.364Z,18.57
2019-02-28T09:49:27.638Z,18.58
2019-02-28T09:52:05.959Z,18.58
2019-02-28T09:54:38.925Z,18.59
2019-02-28T09:57:15.410Z,18.60
2019-02-28T09:59:50.549Z,18.60
2019-02-28T10:02:25.070Z,18.61
2019-02-28T10:05:02.895Z,18.63
2019-02-28T10:07:36.314Z,18.63
2019-02-28T10:10:13.975Z,18.63
2019-02-28T10:12:48.299Z,18.63
2019-02-28T10:15:22.891Z,18.63
2019-02-28T10:17:57.266Z,18.63
2019-02-28T10:20:31.672Z,18.66
2019-02-28T10:23:06.077Z,18.65
2019-02-28T10:25:43.514Z,18.66
2019-02-28T10:28:17.856Z,18.66
2019-02-28T10:30:54.794Z,18.66
2019-02-28T10:33:31.468Z,18.68
2019-02-28T10:36:09.245Z,18.68
2019-02-28T10:38:46.410Z,18.69
2019-02-28T10:41:24.211Z,18.71
2019-02-28T10:43:59.064Z,18.71
2019-02-28T10:46:35.984Z,18.73
2019-02-28T10:49:10.253Z,18.72
2019-02-28T10:51:49.522Z,18.73
2019-02-28T10:54:21.807Z,18.74
2019-02-28T10:56:56.057Z,18.74
2019-02-28T10:59:30.367Z,18.75
2019-02-28T11:02:04.819Z,18.74
2019-02-28T11:04:42.843Z,18.77
2019-02-28T11:07:15.618Z,18.78
2019-02-28T11:09:51.403Z,18.78
2019-02-28T11:12:25.791Z,18.80
2019-02-28T11:15:00.083Z,18.81
2019-02-28T11:17:34.385Z,18.82
2019-02-28T11:20:21.642Z,18.83
2019-02-28T11:22:47.198Z,18.84
2019-02-28T11:25:23.564Z,18.84
2019-02-28T11:27:58.307Z,18.85
2019-02-28T11:30:33.009Z,18.86
2019-02-28T11:33:07.656Z,18.87
2019-02-28T11:35:42.020Z,18.88
2019-02-28T11:38:20.473Z,18.88
2019-02-28T11:40:57.357Z,18.89
2019-02-28T11:43:28.616Z,18.88
2019-02-28T11:46:03.234Z,18.90
2019-02-28T11:48:37.866Z,18.89
2019-02-28T11:51:14.668Z,18.90
2019-02-28T11:53:48.352Z,18.93
2019-02-28T11:56:25.563Z,18.93
2019-02-28T11:58:58.634Z,18.94
2019-02-28T12:01:33.767Z,18.94
2019-02-28T12:04:08.034Z,18.96
2019-02-28T12:06:42.468Z,18.98
2019-02-28T12:09:19.287Z,18.97
2019-02-28T12:11:53.129Z,18.97
2019-02-28T12:14:29.306Z,19.01
2019-02-28T12:17:06.261Z,19.04
2019-02-28T12:19:41.720Z,19.04
2019-02-28T12:22:16.111Z,19.05
2019-02-28T12:24:50.776Z,19.05
2019-02-28T12:27:27.519Z,19.05
2019-02-28T12:30:01.551Z,19.05
2019-02-28T12:32:36.123Z,19.06
2019-02-28T12:35:14.894Z,19.07
2019-02-28T12:37:49.501Z,19.07
2019-02-28T12:40:25.756Z,19.11
2019-02-28T12:42:59.869Z,19.12
2019-02-28T12:45:36.463Z,19.11
2019-02-28T12:48:13.721Z,19.10
2019-02-28T12:50:46.548Z,19.14
2019-02-28T12:53:25.242Z,19.12
2019-02-28T12:55:58.066Z,19.12
2019-02-28T12:58:38.710Z,19.17
2019-02-28T13:01:08.721Z,19.17
2019-02-28T13:03:42.781Z,19.16
2019-02-28T13:06:23.453Z,19.17
2019-02-28T13:08:53.573Z,19.18
2019-02-28T13:11:27.767Z,19.17
2019-02-28T13:14:06.158Z,19.18
2019-02-28T13:16:39.169Z,19.19
2019-02-28T13:19:16.342Z,19.19
2019-02-28T13:21:50.811Z,19.20
2019-02-28T13:24:25.062Z,19.21
2019-02-28T13:26:59.335Z,19.23
2019-02-28T13:29:33.944Z,19.23
2019-02-28T13:32:09.401Z,19.23
2019-02-28T13:34:43.681Z,19.24
2019-02-28T13:37:17.617Z,19.26
2019-02-28T13:39:51.961Z,19.27
2019-02-28T13:42:26.067Z,19.26
2019-02-28T13:45:00.249Z,19.31
2019-02-28T13:47:34.567Z,19.33
2019-02-28T13:50:12.509Z,19.31
2019-02-28T13:52:46.746Z,19.32
2019-02-28T13:55:20.710Z,19.29
2019-02-28T13:57:57.394Z,19.35
2019-02-28T14:00:34.425Z,19.34
2019-02-28T14:03:10.481Z,19.32
2019-02-28T14:05:44.887Z,19.33
2019-02-28T14:08:19.123Z,19.26
2019-02-28T14:10:55.517Z,19.27
2019-02-28T14:13:33.838Z,19.27
2019-02-28T14:16:06.908Z,19.29
2019-02-28T14:18:45.445Z,19.26
2019-02-28T14:21:18.015Z,19.26
2019-02-28T14:23:55.694Z,19.30
2019-02-28T14:26:31.099Z,19.36
2019-02-28T14:29:10.224Z,19.41
2019-02-28T14:31:42.806Z,19.43
2019-02-28T14:34:18.057Z,19.46
2019-02-28T14:36:52.234Z,19.44
2019-02-28T14:39:26.389Z,19.41
2019-02-28T14:42:03.083Z,19.44
2019-02-28T14:44:36.645Z,19.48
2019-02-28T14:47:10.771Z,19.43
2019-02-28T14:49:45.015Z,19.40
2019-02-28T14:52:19.215Z,19.38
2019-02-28T14:54:57.141Z,19.40
2019-02-28T14:57:29.572Z,19.40
2019-02-28T15:00:06.474Z,19.40
2019-02-28T15:02:40.457Z,19.40
2019-02-28T15:05:16.710Z,19.39
2019-02-28T15:07:51.013Z,19.38
2019-02-28T15:10:25.486Z,19.38
2019-02-28T15:13:00.265Z,19.38
2019-02-28T15:15:36.124Z,19.40
2019-02-28T15:18:11.033Z,19.40
2019-02-28T15:20:45.643Z,19.43
2019-02-28T15:23:19.817Z,19.42
2019-02-28T15:25:55.290Z,19.42
2019-02-28T15:28:32.940Z,19.41
2019-02-28T15:31:08.670Z,19.41
2019-02-28T15:33:43.406Z,19.41
2019-02-28T15:36:17.633Z,19.40
2019-02-28T15:38:51.674Z,19.36
2019-02-28T15:41:25.888Z,19.37
2019-02-28T15:44:00.201Z,19.43
2019-02-28T15:46:35.940Z,19.45
2019-02-28T15:49:10.987Z,19.45
2019-02-28T15:51:45.161Z,19.46
2019-02-28T15:54:21.656Z,19.46
2019-02-28T15:56:56.440Z,19.47
2019-02-28T15:59:30.825Z,19.49
2019-02-28T16:02:06.263Z,19.50
2019-02-28T16:04:41.079Z,19.51
2019-02-28T16:07:15.601Z,19.51
2019-02-28T16:09:51.011Z,19.52
2019-02-28T16:12:25.453Z,19.52
2019-02-28T16:14:59.950Z,19.54
2019-02-28T16:17:36.666Z,19.56
2019-02-28T16:20:10.948Z,19.56
2019-02-28T16:22:45.206Z,19.55
2019-02-28T16:25:26.109Z,19.55
2019-02-28T16:28:00.485Z,19.56
2019-02-28T16:30:36.048Z,19.57
2019-02-28T16:33:11.085Z,19.58
2019-02-28T16:35:46.684Z,19.58
2019-02-28T16:38:21.231Z,19.58
2019-02-28T16:40:57.624Z,19.59
2019-02-28T16:43:33.978Z,19.60
2019-02-28T16:46:08.990Z,19.61
2019-02-28T16:48:43.418Z,19.59
2019-02-28T16:51:17.932Z,19.60
2019-02-28T16:53:53.196Z,19.60
2019-02-28T16:56:27.771Z,19.61
2019-02-28T16:59:02.016Z,19.61
2019-02-28T17:01:38.684Z,19.62
2019-02-28T17:04:13.526Z,19.62
2019-02-28T17:06:50.812Z,19.62
2019-02-28T17:09:43.826Z,19.63
2019-02-28T17:12:43.127Z,19.62
2019-02-28T17:15:24.117Z,19.57
2019-02-28T17:18:03.097Z,19.58
2019-02-28T17:20:37.693Z,19.62
2019-02-28T17:23:12.184Z,19.60
2019-02-28T17:25:46.553Z,19.59
2019-02-28T17:28:46.590Z,19.58
2019-02-28T17:31:38.036Z,19.58
2019-02-28T17:34:15.069Z,19.58
2019-02-28T17:36:49.585Z,19.59
2019-02-28T17:39:23.917Z,19.59
2019-02-28T17:41:58.056Z,19.57
2019-02-28T17:45:15.492Z,19.59
2019-02-28T17:48:45.310Z,19.61
2019-02-28T17:51:33.419Z,19.60
2019-02-28T17:54:38.144Z,19.54
2019-02-28T17:57:34.565Z,19.51
2019-02-28T18:00:48.246Z,19.56
2019-02-28T18:03:57.712Z,19.53
2019-02-28T18:07:11.750Z,19.51
2019-02-28T18:10:04.299Z,19.48
2019-02-28T18:12:54.915Z,19.46
2019-02-28T18:16:17.920Z,19.46
2019-02-28T18:19:22.670Z,19.48
2019-02-28T18:23:04.266Z,19.44
2019-02-28T18:26:19.333Z,19.44
2019-02-28T18:29:57.521Z,19.41
2019-02-28T18:32:33.286Z,19.39
2019-02-28T18:35:07.656Z,19.38
2019-02-28T18:37:41.762Z,19.37
2019-02-28T18:40:15.966Z,19.38
2019-02-28T18:42:51.488Z,19.39
2019-02-28T18:45:25.919Z,19.37
2019-02-28T18:48:00.183Z,19.36
2019-02-28T18:50:34.632Z,19.34
2019-02-28T18:53:09.098Z,19.39
2019-02-28T18:55:43.261Z,19.35
2019-02-28T18:58:17.638Z,19.34
2019-02-28T19:00:52.322Z,19.33
2019-02-28T19:03:26.638Z,19.31
2019-02-28T19:06:00.934Z,19.31
2019-02-28T19:08:35.346Z,19.32
2019-02-28T19:11:09.776Z,19.32
2019-02-28T19:13:43.955Z,19.30
2019-02-28T19:16:19.491Z,19.29
2019-02-28T19:18:53.894Z,19.27
2019-02-28T19:21:28.091Z,19.28
2019-02-28T19:24:02.197Z,19.28
2019-02-28T19:26:36.844Z,19.29
2019-02-28T19:29:10.985Z,19.27
2019-02-28T19:31:45.557Z,19.28
2019-02-28T19:34:19.583Z,19.28
2019-02-28T19:36:54.020Z,19.26
2019-02-28T19:39:28.285Z,19.28
2019-02-28T19:42:02.344Z,19.27
2019-02-28T19:44:36.466Z,19.26
2019-02-28T19:47:10.843Z,19.25
2019-02-28T19:49:45.069Z,19.26
2019-02-28T19:52:19.440Z,19.24
2019-02-28T19:54:53.744Z,19.25
2019-02-28T19:57:27.821Z,19.26
2019-02-28T20:00:02.018Z,19.26
2019-02-28T20:02:37.656Z,19.25
2019-02-28T20:05:11.997Z,19.24
2019-02-28T20:07:46.447Z,19.26
2019-02-28T20:10:21.150Z,19.24
2019-02-28T20:12:55.573Z,19.24
2019-02-28T20:15:31.921Z,19.23
2019-02-28T20:18:06.831Z,19.22
2019-02-28T20:20:41.435Z,19.22
2019-02-28T20:23:15.776Z,19.23
2019-02-28T20:25:50.158Z,19.22
2019-02-28T20:28:24.275Z,19.22
2019-02-28T20:30:58.796Z,19.20
2019-02-28T20:33:32.936Z,19.19
2019-02-28T20:36:07.064Z,19.19
2019-02-28T20:38:41.233Z,19.18
2019-02-28T20:41:15.638Z,19.19
2019-02-28T20:43:49.950Z,19.18
2019-02-28T20:46:24.205Z,19.17
2019-02-28T20:48:58.370Z,19.16
2019-02-28T20:51:32.904Z,19.18
2019-02-28T20:54:07.171Z,19.16
2019-02-28T20:56:41.459Z,19.15
2019-02-28T20:59:15.793Z,19.16
2019-02-28T21:01:49.887Z,19.17
2019-02-28T21:04:24.910Z,19.14
2019-02-28T21:06:59.143Z,19.14
2019-02-28T21:09:33.447Z,19.11
2019-02-28T21:12:07.961Z,19.12
2019-02-28T21:14:42.280Z,19.11
2019-02-28T21:17:16.582Z,19.10
2019-02-28T21:19:50.582Z,19.10
2019-02-28T21:22:24.640Z,19.10
2019-02-28T21:24:58.824Z,19.07
2019-02-28T21:27:33.935Z,19.10
2019-02-28T21:30:11.102Z,19.10
2019-02-28T21:32:45.343Z,19.10
2019-02-28T21:35:20.456Z,19.10
2019-02-28T21:37:54.818Z,19.09
2019-02-28T21:40:29.311Z,19.10
2019-02-28T21:43:03.455Z,19.06
2019-02-28T21:45:37.782Z,19.07
2019-02-28T21:48:11.940Z,19.07
2019-02-28T21:50:45.991Z,19.06
2019-02-28T21:53:20.301Z,19.06
2019-02-28T21:55:54.457Z,19.06
2019-02-28T21:58:28.750Z,19.05
2019-02-28T22:01:04.007Z,19.05
2019-02-28T22:03:38.381Z,19.03
2019-02-28T22:06:13.063Z,19.00
2019-02-28T22:08:47.010Z,19.01
2019-02-28T22:11:21.450Z,19.01
2019-02-28T22:13:55.696Z,19.00
2019-02-28T22:16:30.021Z,18.97
2019-02-28T22:19:04.409Z,18.98
2019-02-28T22:21:40.621Z,18.97
2019-02-28T22:24:14.946Z,18.97
2019-02-28T22:26:48.993Z,18.97
2019-02-28T22:29:23.262Z,18.97
2019-02-28T22:32:23.959Z,18.95
2019-02-28T22:35:02.499Z,18.94
2019-02-28T22:37:36.817Z,18.94
2019-02-28T22:40:11.311Z,18.94
2019-02-28T22:42:45.777Z,18.94
2019-02-28T22:45:21.788Z,18.93
2019-02-28T22:47:57.063Z,18.93
2019-02-28T22:50:31.353Z,18.94
2019-02-28T22:53:05.629Z,18.93
2019-02-28T22:55:39.859Z,18.93
2019-02-28T22:58:14.543Z,18.91
2019-02-28T23:01:09.749Z,18.90
2019-02-28T23:03:44.144Z,18.92
2019-02-28T23:06:18.347Z,18.90
2019-02-28T23:08:52.358Z,18.90
2019-02-28T23:11:26.550Z,18.91
2019-02-28T23:14:01.273Z,18.91
2019-02-28T23:16:35.474Z,18.90
2019-02-28T23:19:09.668Z,18.88
2019-02-28T23:21:43.787Z,18.91
2019-02-28T23:24:17.944Z,18.90
2019-02-28T23:27:28.924Z,18.90
2019-02-28T23:30:31.746Z,18.91
2019-02-28T23:33:12.273Z,18.90
2019-02-28T23:35:48.525Z,18.87
2019-02-28T23:38:22.688Z,18.89
2019-02-28T23:40:59.048Z,18.90
2019-02-28T23:43:33.215Z,18.89
2019-02-28T23:46:07.763Z,18.90
2019-02-28T23:48:42.791Z,18.88
2019-02-28T23:51:17.007Z,18.87
2019-02-28T23:53:51.359Z,18.87
2019-02-28T23:56:25.584Z,18.86
2019-02-28T23:59:00.008Z,18.90
